sensor_id;sensor_type;location;lat;lon;timestamp;P1;durP1;ratioP1;P2;durP2;ratioP2
56824;SDS011;42705;50.326;18.772;2024-02-14T00:04:26;92.10;;;39.10;;
56824;SDS011;42705;50.326;18.772;2024-02-14T00:09:48;85.70;;;37.70;;
56824;SDS011;42705;50.326;18.772;2024-02-14T00:15:09;84.50;;;36.80;;
56824;SDS011;42705;50.326;18.772;2024-02-14T00:20:31;76.60;;;34.70;;
56824;SDS011;42705;50.326;18.772;2024-02-14T00:25:53;84.00;;;36.20;;
56824;SDS011;42705;50.326;18.772;2024-02-14T00:31:15;75.90;;;34.10;;
56824;SDS011;42705;50.326;18.772;2024-02-14T00:36:37;82.80;;;40.00;;
56824;SDS011;42705;50.326;18.772;2024-02-14T00:41:58;96.80;;;42.60;;
56824;SDS011;42705;50.326;18.772;2024-02-14T00:47:20;104.70;;;45.20;;
56824;SDS011;42705;50.326;18.772;2024-02-14T00:52:41;86.40;;;39.80;;
56824;SDS011;42705;50.326;18.772;2024-02-14T00:58:04;83.60;;;39.30;;
56824;SDS011;42705;50.326;18.772;2024-02-14T01:03:25;98.70;;;41.60;;
56824;SDS011;42705;50.326;18.772;2024-02-14T01:08:47;108.90;;;48.00;;
56824;SDS011;42705;50.326;18.772;2024-02-14T01:14:08;111.30;;;50.60;;
56824;SDS011;42705;50.326;18.772;2024-02-14T01:19:30;112.20;;;49.20;;
56824;SDS011;42705;50.326;18.772;2024-02-14T01:24:51;116.20;;;50.80;;
56824;SDS011;42705;50.326;18.772;2024-02-14T01:30:13;118.30;;;52.30;;
56824;SDS011;42705;50.326;18.772;2024-02-14T01:35:35;111.80;;;49.60;;
56824;SDS011;42705;50.326;18.772;2024-02-14T01:40:57;111.90;;;48.10;;
56824;SDS011;42705;50.326;18.772;2024-02-14T01:46:18;109.00;;;47.10;;
56824;SDS011;42705;50.326;18.772;2024-02-14T01:51:40;106.60;;;46.80;;
56824;SDS011;42705;50.326;18.772;2024-02-14T01:57:05;112.20;;;48.30;;
56824;SDS011;42705;50.326;18.772;2024-02-14T02:02:27;110.20;;;50.10;;
56824;SDS011;42705;50.326;18.772;2024-02-14T02:07:48;102.80;;;45.50;;
56824;SDS011;42705;50.326;18.772;2024-02-14T02:13:11;99.80;;;46.30;;
56824;SDS011;42705;50.326;18.772;2024-02-14T02:18:32;109.60;;;49.00;;
56824;SDS011;42705;50.326;18.772;2024-02-14T02:23:54;124.60;;;51.90;;
56824;SDS011;42705;50.326;18.772;2024-02-14T02:29:15;116.10;;;50.30;;
56824;SDS011;42705;50.326;18.772;2024-02-14T02:34:37;108.70;;;48.70;;
56824;SDS011;42705;50.326;18.772;2024-02-14T02:40:01;104.50;;;48.00;;
56824;SDS011;42705;50.326;18.772;2024-02-14T02:45:22;113.50;;;49.00;;
56824;SDS011;42705;50.326;18.772;2024-02-14T02:50:44;105.60;;;47.10;;
56824;SDS011;42705;50.326;18.772;2024-02-14T02:56:05;106.10;;;48.50;;
56824;SDS011;42705;50.326;18.772;2024-02-14T03:01:27;95.10;;;45.30;;
56824;SDS011;42705;50.326;18.772;2024-02-14T03:06:49;97.50;;;43.40;;
56824;SDS011;42705;50.326;18.772;2024-02-14T03:12:10;97.20;;;43.80;;
56824;SDS011;42705;50.326;18.772;2024-02-14T03:17:32;96.00;;;43.10;;
56824;SDS011;42705;50.326;18.772;2024-02-14T03:22:53;98.80;;;43.20;;
56824;SDS011;42705;50.326;18.772;2024-02-14T03:28:14;106.00;;;47.50;;
56824;SDS011;42705;50.326;18.772;2024-02-14T03:33:37;104.70;;;45.40;;
56824;SDS011;42705;50.326;18.772;2024-02-14T03:38:58;99.50;;;46.00;;
56824;SDS011;42705;50.326;18.772;2024-02-14T03:44:24;100.70;;;45.50;;
56824;SDS011;42705;50.326;18.772;2024-02-14T03:49:45;93.60;;;44.30;;
56824;SDS011;42705;50.326;18.772;2024-02-14T03:55:07;99.90;;;46.90;;
56824;SDS011;42705;50.326;18.772;2024-02-14T04:00:30;96.20;;;44.20;;
56824;SDS011;42705;50.326;18.772;2024-02-14T04:05:51;92.90;;;46.30;;
56824;SDS011;42705;50.326;18.772;2024-02-14T04:11:12;81.00;;;41.30;;
56824;SDS011;42705;50.326;18.772;2024-02-14T04:16:35;94.90;;;44.60;;
56824;SDS011;42705;50.326;18.772;2024-02-14T04:21:57;89.10;;;43.80;;
56824;SDS011;42705;50.326;18.772;2024-02-14T04:27:18;94.70;;;42.80;;
56824;SDS011;42705;50.326;18.772;2024-02-14T04:32:40;93.60;;;43.20;;
56824;SDS011;42705;50.326;18.772;2024-02-14T04:38:01;97.30;;;47.40;;
56824;SDS011;42705;50.326;18.772;2024-02-14T04:43:24;87.30;;;38.60;;
56824;SDS011;42705;50.326;18.772;2024-02-14T04:48:47;89.20;;;43.20;;
56824;SDS011;42705;50.326;18.772;2024-02-14T04:54:09;83.10;;;39.00;;
56824;SDS011;42705;50.326;18.772;2024-02-14T04:59:30;79.40;;;36.80;;
56824;SDS011;42705;50.326;18.772;2024-02-14T05:04:52;72.70;;;35.20;;
56824;SDS011;42705;50.326;18.772;2024-02-14T05:10:13;74.90;;;34.50;;
56824;SDS011;42705;50.326;18.772;2024-02-14T05:15:34;80.20;;;38.90;;
56824;SDS011;42705;50.326;18.772;2024-02-14T05:20:56;81.00;;;37.80;;
56824;SDS011;42705;50.326;18.772;2024-02-14T05:26:19;79.10;;;38.90;;
56824;SDS011;42705;50.326;18.772;2024-02-14T05:31:44;73.90;;;34.50;;
56824;SDS011;42705;50.326;18.772;2024-02-14T05:37:06;77.80;;;35.70;;
56824;SDS011;42705;50.326;18.772;2024-02-14T05:42:29;78.10;;;40.10;;
56824;SDS011;42705;50.326;18.772;2024-02-14T05:47:50;83.10;;;37.70;;
56824;SDS011;42705;50.326;18.772;2024-02-14T05:53:12;77.50;;;38.00;;
56824;SDS011;42705;50.326;18.772;2024-02-14T05:58:34;80.60;;;40.60;;
56824;SDS011;42705;50.326;18.772;2024-02-14T06:03:55;80.00;;;40.10;;
56824;SDS011;42705;50.326;18.772;2024-02-14T06:09:16;75.70;;;37.60;;
56824;SDS011;42705;50.326;18.772;2024-02-14T06:14:39;86.20;;;41.70;;
56824;SDS011;42705;50.326;18.772;2024-02-14T06:20:01;75.80;;;36.70;;
56824;SDS011;42705;50.326;18.772;2024-02-14T06:25:28;82.40;;;39.70;;
56824;SDS011;42705;50.326;18.772;2024-02-14T06:30:49;77.50;;;38.60;;
56824;SDS011;42705;50.326;18.772;2024-02-14T06:36:10;78.60;;;41.20;;
56824;SDS011;42705;50.326;18.772;2024-02-14T06:41:32;79.30;;;39.10;;
56824;SDS011;42705;50.326;18.772;2024-02-14T06:46:53;82.40;;;40.30;;
56824;SDS011;42705;50.326;18.772;2024-02-14T06:52:15;83.90;;;39.60;;
56824;SDS011;42705;50.326;18.772;2024-02-14T06:57:36;69.10;;;33.00;;
56824;SDS011;42705;50.326;18.772;2024-02-14T07:02:57;75.40;;;35.90;;
56824;SDS011;42705;50.326;18.772;2024-02-14T07:08:19;68.20;;;33.10;;
56824;SDS011;42705;50.326;18.772;2024-02-14T07:13:40;51.70;;;25.70;;
56824;SDS011;42705;50.326;18.772;2024-02-14T07:19:02;69.30;;;32.30;;
56824;SDS011;42705;50.326;18.772;2024-02-14T07:24:24;59.10;;;29.40;;
56824;SDS011;42705;50.326;18.772;2024-02-14T07:29:45;52.10;;;26.80;;
56824;SDS011;42705;50.326;18.772;2024-02-14T07:35:06;56.80;;;28.00;;
56824;SDS011;42705;50.326;18.772;2024-02-14T07:40:28;51.60;;;25.90;;
56824;SDS011;42705;50.326;18.772;2024-02-14T07:45:51;64.50;;;29.80;;
56824;SDS011;42705;50.326;18.772;2024-02-14T07:51:13;53.20;;;27.50;;
56824;SDS011;42705;50.326;18.772;2024-02-14T07:56:35;59.60;;;29.40;;
56824;SDS011;42705;50.326;18.772;2024-02-14T08:01:56;54.80;;;27.10;;
56824;SDS011;42705;50.326;18.772;2024-02-14T08:07:18;52.70;;;26.70;;
56824;SDS011;42705;50.326;18.772;2024-02-14T08:12:39;52.00;;;27.40;;
56824;SDS011;42705;50.326;18.772;2024-02-14T08:18:00;54.30;;;25.50;;
56824;SDS011;42705;50.326;18.772;2024-02-14T08:23:21;53.10;;;24.80;;
56824;SDS011;42705;50.326;18.772;2024-02-14T08:28:43;49.60;;;24.50;;
56824;SDS011;42705;50.326;18.772;2024-02-14T08:34:04;45.30;;;22.80;;
56824;SDS011;42705;50.326;18.772;2024-02-14T08:39:26;43.30;;;22.10;;
56824;SDS011;42705;50.326;18.772;2024-02-14T08:44:47;44.10;;;21.60;;
56824;SDS011;42705;50.326;18.772;2024-02-14T08:50:09;39.60;;;20.10;;
56824;SDS011;42705;50.326;18.772;2024-02-14T08:55:31;38.60;;;19.40;;
56824;SDS011;42705;50.326;18.772;2024-02-14T09:00:54;42.70;;;20.20;;
56824;SDS011;42705;50.326;18.772;2024-02-14T09:06:15;32.10;;;17.40;;
56824;SDS011;42705;50.326;18.772;2024-02-14T09:11:38;33.00;;;16.10;;
56824;SDS011;42705;50.326;18.772;2024-02-14T09:17:01;30.40;;;16.60;;
56824;SDS011;42705;50.326;18.772;2024-02-14T09:22:22;27.10;;;14.30;;
56824;SDS011;42705;50.326;18.772;2024-02-14T09:27:44;29.20;;;15.10;;
56824;SDS011;42705;50.326;18.772;2024-02-14T09:33:08;26.80;;;14.20;;
56824;SDS011;42705;50.326;18.772;2024-02-14T09:38:30;20.00;;;10.80;;
56824;SDS011;42705;50.326;18.772;2024-02-14T09:43:52;24.00;;;13.20;;
56824;SDS011;42705;50.326;18.772;2024-02-14T09:49:14;24.70;;;11.70;;
56824;SDS011;42705;50.326;18.772;2024-02-14T09:54:37;19.50;;;11.10;;
56824;SDS011;42705;50.326;18.772;2024-02-14T10:05:25;22.70;;;11.70;;
56824;SDS011;42705;50.326;18.772;2024-02-14T10:10:46;23.60;;;11.20;;
56824;SDS011;42705;50.326;18.772;2024-02-14T10:16:08;15.60;;;8.70;;
56824;SDS011;42705;50.326;18.772;2024-02-14T10:21:29;17.80;;;9.40;;
56824;SDS011;42705;50.326;18.772;2024-02-14T10:26:54;14.20;;;7.60;;
56824;SDS011;42705;50.326;18.772;2024-02-14T10:32:18;11.80;;;7.40;;
56824;SDS011;42705;50.326;18.772;2024-02-14T10:37:39;11.10;;;6.80;;
56824;SDS011;42705;50.326;18.772;2024-02-14T10:43:01;12.50;;;7.10;;
56824;SDS011;42705;50.326;18.772;2024-02-14T10:48:23;12.50;;;7.40;;
56824;SDS011;42705;50.326;18.772;2024-02-14T10:53:46;15.20;;;8.00;;
56824;SDS011;42705;50.326;18.772;2024-02-14T10:59:10;13.50;;;7.30;;
56824;SDS011;42705;50.326;18.772;2024-02-14T11:04:39;15.90;;;8.40;;
56824;SDS011;42705;50.326;18.772;2024-02-14T11:10:01;8.10;;;5.30;;
56824;SDS011;42705;50.326;18.772;2024-02-14T11:15:25;13.40;;;5.30;;
56824;SDS011;42705;50.326;18.772;2024-02-14T11:20:49;10.40;;;5.30;;
56824;SDS011;42705;50.326;18.772;2024-02-14T11:26:14;9.00;;;5.00;;
56824;SDS011;42705;50.326;18.772;2024-02-14T11:31:36;9.00;;;4.40;;
56824;SDS011;42705;50.326;18.772;2024-02-14T11:36:58;7.80;;;4.90;;
56824;SDS011;42705;50.326;18.772;2024-02-14T11:42:21;12.10;;;5.10;;
56824;SDS011;42705;50.326;18.772;2024-02-14T11:47:42;7.10;;;4.70;;
56824;SDS011;42705;50.326;18.772;2024-02-14T11:53:04;9.20;;;4.80;;
56824;SDS011;42705;50.326;18.772;2024-02-14T11:58:27;10.40;;;5.00;;
56824;SDS011;42705;50.326;18.772;2024-02-14T12:03:48;9.90;;;4.40;;
56824;SDS011;42705;50.326;18.772;2024-02-14T12:09:09;10.10;;;5.10;;
56824;SDS011;42705;50.326;18.772;2024-02-14T12:14:33;7.90;;;4.50;;
56824;SDS011;42705;50.326;18.772;2024-02-14T12:20:13;9.10;;;4.50;;
56824;SDS011;42705;50.326;18.772;2024-02-14T12:25:35;10.60;;;5.40;;
56824;SDS011;42705;50.326;18.772;2024-02-14T12:30:56;10.80;;;4.40;;
56824;SDS011;42705;50.326;18.772;2024-02-14T12:36:18;13.40;;;5.90;;
56824;SDS011;42705;50.326;18.772;2024-02-14T12:41:40;6.30;;;4.50;;
56824;SDS011;42705;50.326;18.772;2024-02-14T12:47:01;7.90;;;4.60;;
56824;SDS011;42705;50.326;18.772;2024-02-14T12:57:45;10.10;;;5.40;;
56824;SDS011;42705;50.326;18.772;2024-02-14T13:03:08;9.90;;;4.90;;
56824;SDS011;42705;50.326;18.772;2024-02-14T13:08:31;7.30;;;4.60;;
56824;SDS011;42705;50.326;18.772;2024-02-14T13:13:53;8.10;;;4.50;;
56824;SDS011;42705;50.326;18.772;2024-02-14T13:19:15;7.40;;;3.40;;
56824;SDS011;42705;50.326;18.772;2024-02-14T13:24:36;7.20;;;3.90;;
56824;SDS011;42705;50.326;18.772;2024-02-14T13:35:18;5.20;;;3.30;;
56824;SDS011;42705;50.326;18.772;2024-02-14T13:40:40;5.10;;;3.00;;
56824;SDS011;42705;50.326;18.772;2024-02-14T13:46:01;4.90;;;3.50;;
56824;SDS011;42705;50.326;18.772;2024-02-14T13:51:23;6.80;;;4.60;;
56824;SDS011;42705;50.326;18.772;2024-02-14T13:56:45;8.00;;;5.40;;
56824;SDS011;42705;50.326;18.772;2024-02-14T14:02:09;7.10;;;5.50;;
56824;SDS011;42705;50.326;18.772;2024-02-14T14:07:30;7.60;;;4.80;;
56824;SDS011;42705;50.326;18.772;2024-02-14T14:12:51;11.10;;;5.20;;
56824;SDS011;42705;50.326;18.772;2024-02-14T14:18:12;10.50;;;5.20;;
56824;SDS011;42705;50.326;18.772;2024-02-14T14:23:34;6.80;;;4.80;;
56824;SDS011;42705;50.326;18.772;2024-02-14T14:28:55;7.30;;;4.80;;
56824;SDS011;42705;50.326;18.772;2024-02-14T14:34:16;8.30;;;4.60;;
56824;SDS011;42705;50.326;18.772;2024-02-14T14:39:38;8.10;;;4.60;;
56824;SDS011;42705;50.326;18.772;2024-02-14T14:44:59;14.30;;;6.10;;
56824;SDS011;42705;50.326;18.772;2024-02-14T14:50:20;10.70;;;6.00;;
56824;SDS011;42705;50.326;18.772;2024-02-14T15:01:11;12.30;;;6.80;;
56824;SDS011;42705;50.326;18.772;2024-02-14T15:11:55;19.70;;;8.90;;
56824;SDS011;42705;50.326;18.772;2024-02-14T15:17:18;28.60;;;14.60;;
56824;SDS011;42705;50.326;18.772;2024-02-14T15:22:41;29.10;;;14.80;;
56824;SDS011;42705;50.326;18.772;2024-02-14T15:28:09;24.10;;;13.10;;
56824;SDS011;42705;50.326;18.772;2024-02-14T15:33:42;34.10;;;17.20;;
56824;SDS011;42705;50.326;18.772;2024-02-14T15:39:03;25.90;;;14.70;;
56824;SDS011;42705;50.326;18.772;2024-02-14T15:44:28;28.30;;;13.10;;
56824;SDS011;42705;50.326;18.772;2024-02-14T15:49:50;24.00;;;11.70;;
56824;SDS011;42705;50.326;18.772;2024-02-14T15:55:11;20.40;;;10.20;;
56824;SDS011;42705;50.326;18.772;2024-02-14T16:00:32;19.00;;;10.80;;
56824;SDS011;42705;50.326;18.772;2024-02-14T16:05:54;21.60;;;11.00;;
56824;SDS011;42705;50.326;18.772;2024-02-14T16:11:16;25.70;;;10.90;;
56824;SDS011;42705;50.326;18.772;2024-02-14T16:16:37;16.30;;;8.60;;
56824;SDS011;42705;50.326;18.772;2024-02-14T16:21:58;20.00;;;8.80;;
56824;SDS011;42705;50.326;18.772;2024-02-14T16:27:22;19.80;;;10.40;;
56824;SDS011;42705;50.326;18.772;2024-02-14T16:32:43;25.00;;;11.90;;
56824;SDS011;42705;50.326;18.772;2024-02-14T16:38:07;26.00;;;11.90;;
56824;SDS011;42705;50.326;18.772;2024-02-14T16:43:29;26.10;;;12.50;;
56824;SDS011;42705;50.326;18.772;2024-02-14T16:48:52;32.40;;;13.90;;
56824;SDS011;42705;50.326;18.772;2024-02-14T16:54:14;31.50;;;12.90;;
56824;SDS011;42705;50.326;18.772;2024-02-14T16:59:39;28.10;;;13.10;;
56824;SDS011;42705;50.326;18.772;2024-02-14T17:05:02;25.20;;;11.90;;
56824;SDS011;42705;50.326;18.772;2024-02-14T17:10:23;23.60;;;12.30;;
56824;SDS011;42705;50.326;18.772;2024-02-14T17:15:45;36.50;;;16.10;;
56824;SDS011;42705;50.326;18.772;2024-02-14T17:21:07;32.60;;;15.80;;
56824;SDS011;42705;50.326;18.772;2024-02-14T17:26:28;31.00;;;13.70;;
56824;SDS011;42705;50.326;18.772;2024-02-14T17:31:50;38.30;;;14.30;;
56824;SDS011;42705;50.326;18.772;2024-02-14T17:37:12;30.30;;;15.00;;
56824;SDS011;42705;50.326;18.772;2024-02-14T17:42:33;27.60;;;13.30;;
56824;SDS011;42705;50.326;18.772;2024-02-14T17:47:55;31.00;;;13.80;;
56824;SDS011;42705;50.326;18.772;2024-02-14T17:53:16;34.70;;;14.70;;
56824;SDS011;42705;50.326;18.772;2024-02-14T17:58:37;28.50;;;14.20;;
56824;SDS011;42705;50.326;18.772;2024-02-14T18:03:58;30.60;;;14.10;;
56824;SDS011;42705;50.326;18.772;2024-02-14T18:09:20;32.70;;;14.40;;
56824;SDS011;42705;50.326;18.772;2024-02-14T18:14:41;32.10;;;16.30;;
56824;SDS011;42705;50.326;18.772;2024-02-14T18:20:03;36.40;;;16.30;;
56824;SDS011;42705;50.326;18.772;2024-02-14T18:25:25;30.40;;;16.20;;
56824;SDS011;42705;50.326;18.772;2024-02-14T18:30:46;37.30;;;18.50;;
56824;SDS011;42705;50.326;18.772;2024-02-14T18:36:08;41.70;;;19.20;;
56824;SDS011;42705;50.326;18.772;2024-02-14T18:41:29;46.10;;;21.80;;
56824;SDS011;42705;50.326;18.772;2024-02-14T18:46:50;40.60;;;19.40;;
56824;SDS011;42705;50.326;18.772;2024-02-14T18:52:12;40.80;;;19.60;;
56824;SDS011;42705;50.326;18.772;2024-02-14T18:57:34;40.90;;;17.30;;
56824;SDS011;42705;50.326;18.772;2024-02-14T19:02:56;37.90;;;16.10;;
56824;SDS011;42705;50.326;18.772;2024-02-14T19:08:18;33.40;;;15.60;;
56824;SDS011;42705;50.326;18.772;2024-02-14T19:13:39;32.20;;;15.10;;
56824;SDS011;42705;50.326;18.772;2024-02-14T19:19:01;38.50;;;17.50;;
56824;SDS011;42705;50.326;18.772;2024-02-14T19:24:22;29.80;;;15.30;;
56824;SDS011;42705;50.326;18.772;2024-02-14T19:29:44;31.20;;;15.60;;
56824;SDS011;42705;50.326;18.772;2024-02-14T19:35:05;31.10;;;14.70;;
56824;SDS011;42705;50.326;18.772;2024-02-14T19:40:27;32.80;;;15.60;;
56824;SDS011;42705;50.326;18.772;2024-02-14T19:45:49;30.50;;;15.10;;
56824;SDS011;42705;50.326;18.772;2024-02-14T19:51:11;31.10;;;15.30;;
56824;SDS011;42705;50.326;18.772;2024-02-14T19:56:33;29.20;;;12.80;;
56824;SDS011;42705;50.326;18.772;2024-02-14T20:14:51;21.10;;;10.70;;
56824;SDS011;42705;50.326;18.772;2024-02-14T20:20:14;24.70;;;11.10;;
56824;SDS011;42705;50.326;18.772;2024-02-14T20:25:36;20.50;;;10.90;;
56824;SDS011;42705;50.326;18.772;2024-02-14T20:30:58;24.00;;;10.90;;
56824;SDS011;42705;50.326;18.772;2024-02-14T20:36:20;19.40;;;10.30;;
56824;SDS011;42705;50.326;18.772;2024-02-14T20:41:43;20.50;;;10.50;;
56824;SDS011;42705;50.326;18.772;2024-02-14T20:47:05;24.00;;;10.80;;
56824;SDS011;42705;50.326;18.772;2024-02-14T20:52:28;25.50;;;10.60;;
56824;SDS011;42705;50.326;18.772;2024-02-14T20:57:50;26.30;;;11.50;;
56824;SDS011;42705;50.326;18.772;2024-02-14T21:03:12;28.80;;;12.90;;
56824;SDS011;42705;50.326;18.772;2024-02-14T21:08:35;27.30;;;12.50;;
56824;SDS011;42705;50.326;18.772;2024-02-14T21:13:57;28.90;;;13.00;;
56824;SDS011;42705;50.326;18.772;2024-02-14T21:19:19;25.40;;;11.40;;
56824;SDS011;42705;50.326;18.772;2024-02-14T21:24:41;28.50;;;11.70;;
56824;SDS011;42705;50.326;18.772;2024-02-14T21:30:04;22.30;;;11.60;;
56824;SDS011;42705;50.326;18.772;2024-02-14T21:35:32;23.40;;;11.30;;
56824;SDS011;42705;50.326;18.772;2024-02-14T21:40:57;21.60;;;11.30;;
56824;SDS011;42705;50.326;18.772;2024-02-14T21:46:20;21.50;;;11.00;;
56824;SDS011;42705;50.326;18.772;2024-02-14T21:51:42;30.20;;;13.30;;
56824;SDS011;42705;50.326;18.772;2024-02-14T21:57:04;28.10;;;12.20;;
56824;SDS011;42705;50.326;18.772;2024-02-14T22:02:26;23.50;;;11.70;;
56824;SDS011;42705;50.326;18.772;2024-02-14T22:07:48;27.00;;;13.10;;
56824;SDS011;42705;50.326;18.772;2024-02-14T22:13:10;23.50;;;12.80;;
56824;SDS011;42705;50.326;18.772;2024-02-14T22:18:32;24.80;;;12.80;;
56824;SDS011;42705;50.326;18.772;2024-02-14T22:23:59;27.50;;;13.80;;
56824;SDS011;42705;50.326;18.772;2024-02-14T22:29:21;29.10;;;13.90;;
56824;SDS011;42705;50.326;18.772;2024-02-14T22:34:43;30.90;;;15.10;;
56824;SDS011;42705;50.326;18.772;2024-02-14T22:40:06;27.10;;;13.40;;
56824;SDS011;42705;50.326;18.772;2024-02-14T22:45:28;28.70;;;14.80;;
56824;SDS011;42705;50.326;18.772;2024-02-14T22:50:51;37.50;;;17.00;;
56824;SDS011;42705;50.326;18.772;2024-02-14T22:56:13;33.90;;;16.90;;
56824;SDS011;42705;50.326;18.772;2024-02-14T23:06:58;33.10;;;16.50;;
56824;SDS011;42705;50.326;18.772;2024-02-14T23:12:22;38.00;;;16.30;;
56824;SDS011;42705;50.326;18.772;2024-02-14T23:17:44;38.30;;;16.80;;
56824;SDS011;42705;50.326;18.772;2024-02-14T23:23:05;36.10;;;17.70;;
56824;SDS011;42705;50.326;18.772;2024-02-14T23:28:27;35.70;;;15.80;;
56824;SDS011;42705;50.326;18.772;2024-02-14T23:33:49;34.50;;;15.70;;
56824;SDS011;42705;50.326;18.772;2024-02-14T23:39:11;32.00;;;15.20;;
56824;SDS011;42705;50.326;18.772;2024-02-14T23:44:33;36.90;;;16.30;;
56824;SDS011;42705;50.326;18.772;2024-02-14T23:55:18;32.70;;;14.70;;
